Antonito, CO

10:48 PM MDT on August 21, 2014 (GMT -0600)
RAWS BIG HORN CO US | Change Station
CLOSE
Current Station
Personal Weather Station
Location: Antonito, CO
Elevation: 8650 ft
Nearby Weather Stations

Elev 8650 ft 37.02 °N, 106.20 °W | Updated 50 minutes ago

Partly Cloudy
Partly Cloudy
62 °F
Feels Like 62 °F
N
2
Wind Variable Wind from NNW
Gusts 5.0 mph

Today
High -- | Low -- °F
--% Chance of Precip.
Yesterday
High -- | Low -- °F
Precip. -- in
6:26 AM 7:48 PM
Waning Crescent, 10% visible
Pressure 29.95 in
Visibility 10.0 miles
Clouds Few 10000 ft
Dew Point 33 °F
Humidity 33%
Rainfall 0.00 in
Snow Depth Not available.
UV 0 out of 12
Pollen 10.10 out of 12
Air Quality Not available.
Flu Activity Not available.
METAR KALS 220352Z AUTO 31005KT 10SM FEW100 19/05 A3025 RMK AO2 SLP140 T01890050

More Conditions Fewer Conditions

Pressure 29.95 in
Visibility 10.0 miles
Clouds Few 10000 ft
Dew Point 33 °F
Humidity 33%
Rainfall 0.00 in
Snow Depth Not available.
UV 0 out of 12
Pollen 10.10 out of 12
Air Quality Not available.
Flu Activity Not available.
METAR KALS 220352Z AUTO 31005KT 10SM FEW100 19/05 A3025 RMK AO2 SLP140 T01890050

More Conditions Fewer Conditions

10-Day Weather Forecast

Almanac

Astronomy

Aug. 21, 2014 Rise Set
Actual Time 6:26 AM MDT 7:48 PM MDT
Civil Twilight 5:59 AM MDT 8:15 PM MDT
Nautical Twilight 5:26 AM MDT 8:48 PM MDT
Astronomical Twilight 4:52 AM MDT 9:22 PM MDT
Moon 3:01 AM MDT (8/21) 5:17 PM MDT (8/21)
Length of Visible Light 14h 16m
Length of Day
13h 22m
Tomorrow will be 2m 10s shorter.
Waning Crescent, 10% of the Moon is Illuminated
Aug 22
Waning Crescent
Aug 25
New
Sep 2
First Quarter
Sep 8
Full
Sep 15
Last Quarter

Yesterday's Extremes

State Highs State Lows

Community

WunderPhotos

Upload Photos

1,746,130 photos uploaded!

Nearby

Snow Depth

Station Depth Elevation
Wolf Creek Summit 0 in 11000 ft
Upper San Juan 0 in 10130 ft
Medano Pass 0 in 9620 ft
Upper Rio Grande 0 in 9400 ft
South Colony 0 in 10800 ft

Earthquake Activity

City Distance Mag. Time & Date
No recent earthquake activity has been reported nearby.
Minimum magnitude displayed is 2.5.

Coastal Water Temperatures

Place Temperature
No Stations Reporting

Nearby Weather Stations